Time;durP1;ratioP1;P1;durP2;ratioP2;P2;SDS_P1;SDS_P2;PMS_P1;PMS_P2;Temp;Humidity;BMP_temperature;BMP_pressure;BME280_temperature;BME280_humidity;BME280_pressure;Samples;Min_cycle;Max_cycle;Signal;HPM_P1;HPM_P2
2022/09/05 00:00:48;;;;;;;;;;;;;;;;;;5047419;28;19909;-79
2022/09/05 00:03:14;;;;;;;;;;;;;;;;;;5037764;28;19931;-79
2022/09/05 00:05:39;;;;;;;;;;;;;;;;;;5048209;28;19919;-79
2022/09/05 00:08:04;;;;;;;;;;;;;;;;;;5043997;28;20352;-79
2022/09/05 00:10:29;;;;;;;;;;;;;;;;;;5047626;28;19915;-79
2022/09/05 00:12:54;;;;;;;;;;;;;;;;;;5041646;28;19917;-80
2022/09/05 00:15:19;;;;;;;;;;;;;;;;;;5036616;28;19916;-80
2022/09/05 00:17:44;;;;;;;;;;;;;;;;;;5039262;28;19916;-80
2022/09/05 00:20:10;;;;;;;;;;;;;;;;;;5043127;28;20352;-80
2022/09/05 00:22:35;;;;;;;;;;;;;;;;;;5033670;28;19908;-80
2022/09/05 00:25:00;;;;;;;;;;;;;;;;;;5048248;28;19917;-80
2022/09/05 00:27:25;;;;;;;;;;;;;;;;;;5035611;28;19905;-79
2022/09/05 00:29:51;;;;;;;;;;;;;;;;;;5034780;28;19909;-79
2022/09/05 00:32:16;;;;;;;;;;;;;;;;;;5042742;28;19967;-79
2022/09/05 00:34:41;;;;;;;;;;;;;;;;;;5042868;28;19963;-79
2022/09/05 00:37:06;;;;;;;;;;;;;;;;;;5042789;28;20415;-79
2022/09/05 00:39:31;;;;;;;;;;;;;;;;;;5036265;28;20426;-78
2022/09/05 00:41:56;;;;;;;;;;;;;;;;;;5042253;28;19905;-78
2022/09/05 00:44:21;;;;;;;;;;;;;;;;;;5035871;28;19909;-79
2022/09/05 00:46:47;;;;;;;;;;;;;;;;;;5038081;28;20303;-78
2022/09/05 00:49:12;;;;;;;;;;;;;;;;;;5035595;28;19909;-78
2022/09/05 00:51:37;;;;;;;;;;;;;;;;;;5040035;28;19959;-78
2022/09/05 00:54:02;;;;;;;;;;;;;;;;;;5055247;28;20268;-78
2022/09/05 00:56:28;;;;;;;;;;;;;;;;;;5053420;28;20003;-78
2022/09/05 00:58:53;;;;;;;;;;;;;;;;;;5055644;28;20352;-78
2022/09/05 01:01:18;;;;;;;;;;;;;;;;;;5054087;28;20352;-78
2022/09/05 01:03:43;;;;;;;;;;;;;;;;;;5039777;28;19931;-78
2022/09/05 01:06:08;;;;;;;;;;;;;;;;;;5040457;28;20357;-78
2022/09/05 01:08:33;;;;;;;;;;;;;;;;;;5047908;28;20332;-79
2022/09/05 01:10:59;;;;;;;;;;;;;;;;;;5044465;28;20288;-78
2022/09/05 01:13:24;;;;;;;;;;;;;;;;;;5038561;28;19913;-78
2022/09/05 01:15:49;;;;;;;;;;;;;;;;;;5047247;28;19988;-79
2022/09/05 01:18:14;;;;;;;;;;;;;;;;;;5050097;28;19909;-78
2022/09/05 01:20:39;;;;;;;;;;;;;;;;;;5040316;28;20008;-78
2022/09/05 01:23:04;;;;;;;;;;;;;;;;;;5040721;28;19916;-78
2022/09/05 01:25:29;;;;;;;;;;;;;;;;;;5038546;28;19917;-78
2022/09/05 01:27:55;;;;;;;;;;;;;;;;;;5048331;28;19988;-79
2022/09/05 01:30:20;;;;;;;;;;;;;;;;;;5049163;28;19915;-78
2022/09/05 01:32:45;;;;;;;;;;;;;;;;;;5051266;28;19909;-78
2022/09/05 01:35:10;;;;;;;;;;;;;;;;;;5049181;28;19909;-78
2022/09/05 01:37:36;;;;;;;;;;;;;;;;;;5053056;28;19920;-79
2022/09/05 01:40:01;;;;;;;;;;;;;;;;;;5040228;28;19909;-78
2022/09/05 01:42:28;;;;;;;;;;;;;;;;;;5051646;28;20359;-78
2022/09/05 01:44:54;;;;;;;;;;;;;;;;;;5047800;28;19913;-78
2022/09/05 01:47:19;;;;;;;;;;;;;;;;;;5051493;28;19920;-78
2022/09/05 01:49:44;;;;;;;;;;;;;;;;;;5053052;28;19959;-78
2022/09/05 01:52:09;;;;;;;;;;;;;;;;;;5047961;28;20299;-78
2022/09/05 01:54:34;;;;;;;;;;;;;;;;;;5038520;28;19955;-78
2022/09/05 01:56:59;;;;;;;;;;;;;;;;;;5047184;28;19962;-78
2022/09/05 01:59:25;;;;;;;;;;;;;;;;;;5044274;28;19915;-78
2022/09/05 02:01:50;;;;;;;;;;;;;;;;;;5045216;28;19988;-78
2022/09/05 02:04:15;;;;;;;;;;;;;;;;;;5045855;28;19915;-78
2022/09/05 02:06:40;;;;;;;;;;;;;;;;;;5047810;28;20374;-78
2022/09/05 02:09:05;;;;;;;;;;;;;;;;;;5042830;28;19924;-78
2022/09/05 02:11:30;;;;;;;;;;;;;;;;;;5042010;28;19932;-78
2022/09/05 02:13:56;;;;;;;;;;;;;;;;;;5049005;28;19999;-78
2022/09/05 02:16:21;;;;;;;;;;;;;;;;;;5044507;28;19918;-78
2022/09/05 02:18:46;;;;;;;;;;;;;;;;;;5052466;28;19998;-78
2022/09/05 02:21:11;;;;;;;;;;;;;;;;;;5044010;28;19964;-78
2022/09/05 02:23:36;;;;;;;;;;;;;;;;;;5037737;28;19915;-78
2022/09/05 02:26:01;;;;;;;;;;;;;;;;;;5040764;28;20008;-78
2022/09/05 02:28:26;;;;;;;;;;;;;;;;;;5044348;28;19909;-78
2022/09/05 02:30:52;;;;;;;;;;;;;;;;;;5044735;28;19905;-78
2022/09/05 02:33:17;;;;;;;;;;;;;;;;;;5044755;28;19913;-78
2022/09/05 02:35:42;;;;;;;;;;;;;;;;;;5047647;28;19992;-78
2022/09/05 02:38:07;;;;;;;;;;;;;;;;;;5037950;28;20360;-78
2022/09/05 02:40:32;;;;;;;;;;;;;;;;;;5045965;28;19909;-78
2022/09/05 02:42:57;;;;;;;;;;;;;;;;;;5047476;28;20011;-78
2022/09/05 02:45:23;;;;;;;;;;;;;;;;;;5039189;28;19921;-78
2022/09/05 02:47:48;;;;;;;;;;;;;;;;;;5038436;28;19905;-78
2022/09/05 02:50:13;;;;;;;;;;;;;;;;;;5036140;28;19916;-78
2022/09/05 02:52:38;;;;;;;;;;;;;;;;;;5046536;28;19909;-78
2022/09/05 02:55:03;;;;;;;;;;;;;;;;;;5036833;28;19916;-78
2022/09/05 02:57:28;;;;;;;;;;;;;;;;;;5040746;28;20313;-78
2022/09/05 02:59:53;;;;;;;;;;;;;;;;;;5036105;28;19917;-78
2022/09/05 03:02:19;;;;;;;;;;;;;;;;;;5046955;28;19928;-78
2022/09/05 03:04:44;;;;;;;;;;;;;;;;;;5036638;28;19913;-78
2022/09/05 03:07:10;;;;;;;;;;;;;;;;;;5042527;28;19915;-78
2022/09/05 03:09:35;;;;;;;;;;;;;;;;;;5049595;28;19948;-78
2022/09/05 03:12:00;;;;;;;;;;;;;;;;;;5046071;28;19915;-78
2022/09/05 03:14:25;;;;;;;;;;;;;;;;;;5038315;28;19908;-78
2022/09/05 03:16:51;;;;;;;;;;;;;;;;;;5048521;28;19913;-78
2022/09/05 03:19:16;;;;;;;;;;;;;;;;;;5043257;28;20375;-78
2022/09/05 03:21:41;;;;;;;;;;;;;;;;;;5044320;28;19912;-78
2022/09/05 03:24:06;;;;;;;;;;;;;;;;;;5041581;28;19916;-78
2022/09/05 03:26:31;;;;;;;;;;;;;;;;;;5042736;28;20019;-79
2022/09/05 03:28:56;;;;;;;;;;;;;;;;;;5038857;28;19912;-78
2022/09/05 03:31:21;;;;;;;;;;;;;;;;;;5035997;28;19955;-78
2022/09/05 03:33:46;;;;;;;;;;;;;;;;;;5038587;28;19971;-78
2022/09/05 03:36:12;;;;;;;;;;;;;;;;;;5036670;28;20338;-78
2022/09/05 03:38:38;;;;;;;;;;;;;;;;;;5038451;28;19917;-78
2022/09/05 03:41:03;;;;;;;;;;;;;;;;;;5042485;28;20250;-78
2022/09/05 03:43:29;;;;;;;;;;;;;;;;;;5038951;28;20303;-78
2022/09/05 03:45:54;;;;;;;;;;;;;;;;;;5043992;28;20015;-78
2022/09/05 03:48:20;;;;;;;;;;;;;;;;;;5043017;28;19991;-78
2022/09/05 03:50:45;;;;;;;;;;;;;;;;;;5042932;28;19916;-78
2022/09/05 03:53:10;;;;;;;;;;;;;;;;;;5042129;28;19909;-78
2022/09/05 03:55:35;;;;;;;;;;;;;;;;;;5043385;28;20357;-78
2022/09/05 03:58:00;;;;;;;;;;;;;;;;;;5045882;28;19916;-78
2022/09/05 04:00:25;;;;;;;;;;;;;;;;;;5045162;28;20371;-78
2022/09/05 04:02:50;;;;;;;;;;;;;;;;;;5049810;28;19963;-78
2022/09/05 04:05:16;;;;;;;;;;;;;;;;;;5033359;28;19909;-78
2022/09/05 04:07:41;;;;;;;;;;;;;;;;;;5046121;28;19913;-78
2022/09/05 04:10:06;;;;;;;;;;;;;;;;;;5043829;28;19916;-78
2022/09/05 04:12:31;;;;;;;;;;;;;;;;;;5048706;28;19905;-78
2022/09/05 04:14:56;;;;;;;;;;;;;;;;;;5047623;28;21696;-78
2022/09/05 04:17:22;;;;;;;;;;;;;;;;;;5045280;28;20383;-79
2022/09/05 04:19:47;;;;;;;;;;;;;;;;;;5046502;28;20336;-78
2022/09/05 04:22:12;;;;;;;;;;;;;;;;;;5046415;28;19905;-78
2022/09/05 04:24:37;;;;;;;;;;;;;;;;;;5038906;28;19925;-78
2022/09/05 04:27:02;;;;;;;;;;;;;;;;;;5049307;28;19936;-78
2022/09/05 04:29:27;;;;;;;;;;;;;;;;;;5050583;28;19917;-79
2022/09/05 04:31:54;;;;;;;;;;;;;;;;;;5047446;28;20262;-78
2022/09/05 04:34:19;;;;;;;;;;;;;;;;;;5039670;28;19963;-78
2022/09/05 04:36:44;;;;;;;;;;;;;;;;;;5040421;28;19909;-79
2022/09/05 04:39:09;;;;;;;;;;;;;;;;;;5041142;28;19932;-79
2022/09/05 04:41:34;;;;;;;;;;;;;;;;;;5048267;28;19947;-80
2022/09/05 04:43:59;;;;;;;;;;;;;;;;;;5040286;28;19909;-80
2022/09/05 04:46:24;;;;;;;;;;;;;;;;;;5055313;28;19917;-81
2022/09/05 04:48:50;;;;;;;;;;;;;;;;;;5046278;28;19909;-82
2022/09/05 04:51:15;;;;;;;;;;;;;;;;;;5055400;28;20027;-82
2022/09/05 04:53:40;;;;;;;;;;;;;;;;;;5048824;28;19916;-81
2022/09/05 04:56:05;;;;;;;;;;;;;;;;;;5050701;28;19952;-82
2022/09/05 04:58:30;;;;;;;;;;;;;;;;;;5046588;28;19916;-81
2022/09/05 05:00:56;;;;;;;;;;;;;;;;;;5045610;28;19916;-80
2022/09/05 05:03:21;;;;;;;;;;;;;;;;;;5045930;28;19959;-80
2022/09/05 05:05:46;;;;;;;;;;;;;;;;;;5046498;28;19917;-79
2022/09/05 05:08:11;;;;;;;;;;;;;;;;;;5047278;28;19909;-79
2022/09/05 05:10:37;;;;;;;;;;;;;;;;;;5048088;28;19995;-79
2022/09/05 05:13:02;;;;;;;;;;;;;;;;;;5051951;28;19917;-80
2022/09/05 05:15:27;;;;;;;;;;;;;;;;;;5048300;28;19938;-80
2022/09/05 05:17:52;;;;;;;;;;;;;;;;;;5037856;28;20241;-80
2022/09/05 05:20:17;;;;;;;;;;;;;;;;;;5047307;28;20008;-81
2022/09/05 05:22:42;;;;;;;;;;;;;;;;;;5047707;28;19935;-81
2022/09/05 05:25:07;;;;;;;;;;;;;;;;;;5042822;28;19917;-80
2022/09/05 05:27:32;;;;;;;;;;;;;;;;;;5050175;28;19905;-81
2022/09/05 05:29:58;;;;;;;;;;;;;;;;;;5048393;28;19940;-81
2022/09/05 05:32:23;;;;;;;;;;;;;;;;;;5049857;28;19913;-81
2022/09/05 05:34:48;;;;;;;;;;;;;;;;;;5036186;28;19994;-81
2022/09/05 05:37:13;;;;;;;;;;;;;;;;;;5046634;28;19987;-81
2022/09/05 05:39:38;;;;;;;;;;;;;;;;;;5041032;28;19916;-80
2022/09/05 05:42:03;;;;;;;;;;;;;;;;;;5053620;28;19951;-80
2022/09/05 05:44:29;;;;;;;;;;;;;;;;;;5040091;28;19916;-80
2022/09/05 05:46:54;;;;;;;;;;;;;;;;;;5047253;28;19916;-80
2022/09/05 05:49:19;;;;;;;;;;;;;;;;;;5036669;28;19909;-80
2022/09/05 05:51:44;;;;;;;;;;;;;;;;;;5045364;28;20324;-80
2022/09/05 05:54:09;;;;;;;;;;;;;;;;;;5039254;28;19992;-80
2022/09/05 05:56:34;;;;;;;;;;;;;;;;;;5041991;28;20297;-80
2022/09/05 05:59:00;;;;;;;;;;;;;;;;;;5037941;28;20360;-81
2022/09/05 06:01:25;;;;;;;;;;;;;;;;;;5050808;28;19909;-81
2022/09/05 06:03:50;;;;;;;;;;;;;;;;;;5038272;28;19916;-81
2022/09/05 06:06:15;;;;;;;;;;;;;;;;;;5039767;28;19963;-81
2022/09/05 06:08:40;;;;;;;;;;;;;;;;;;5040527;28;19905;-81
2022/09/05 06:11:05;;;;;;;;;;;;;;;;;;5047088;28;19910;-81
2022/09/05 06:13:30;;;;;;;;;;;;;;;;;;5042323;28;19988;-82
2022/09/05 06:15:55;;;;;;;;;;;;;;;;;;5053475;28;19962;-82
2022/09/05 06:18:21;;;;;;;;;;;;;;;;;;5050790;28;19915;-84
2022/09/05 06:20:47;;;;;;;;;;;;;;;;;;5044216;28;20356;-84
2022/09/05 06:23:12;;;;;;;;;;;;;;;;;;5039396;28;19963;-84
2022/09/05 06:25:38;;;;;;;;;;;;;;;;;;5037732;28;20104;-84
2022/09/05 06:28:03;;;;;;;;;;;;;;;;;;5040122;28;19912;-84
2022/09/05 06:30:28;;;;;;;;;;;;;;;;;;5048964;28;19962;-84
2022/09/05 06:32:53;;;;;;;;;;;;;;;;;;5044999;28;20268;-79
2022/09/05 06:35:18;;;;;;;;;;;;;;;;;;5041455;28;20241;-79
2022/09/05 06:37:43;;;;;;;;;;;;;;;;;;5048794;28;19936;-80
2022/09/05 06:40:08;;;;;;;;;;;;;;;;;;5037900;28;20287;-80
2022/09/05 06:42:34;;;;;;;;;;;;;;;;;;5042370;28;19916;-80
2022/09/05 06:44:59;;;;;;;;;;;;;;;;;;5042499;28;20593;-82
2022/09/05 06:47:24;;;;;;;;;;;;;;;;;;5047863;28;19920;-81
2022/09/05 06:49:49;;;;;;;;;;;;;;;;;;5040000;28;19910;-78
2022/09/05 06:52:14;;;;;;;;;;;;;;;;;;5048774;28;19916;-78
2022/09/05 06:54:39;;;;;;;;;;;;;;;;;;5037002;28;19908;-79
2022/09/05 06:57:04;;;;;;;;;;;;;;;;;;5040001;28;19908;-80
2022/09/05 06:59:33;;;;;;;;;;;;;;;;;;5050899;28;19995;-82
2022/09/05 07:01:58;;;;;;;;;;;;;;;;;;5045665;28;19908;-80
2022/09/05 07:04:23;;;;;;;;;;;;;;;;;;5040076;28;19979;-81
2022/09/05 07:06:48;;;;;;;;;;;;;;;;;;5048280;28;19917;-80
2022/09/05 07:09:13;;;;;;;;;;;;;;;;;;5046032;28;19904;-80
2022/09/05 07:11:38;;;;;;;;;;;;;;;;;;5049081;28;20000;-83
2022/09/05 07:14:04;;;;;;;;;;;;;;;;;;5047395;28;19908;-80
2022/09/05 07:16:29;;;;;;;;;;;;;;;;;;5044559;28;19936;-80
2022/09/05 07:18:55;;;;;;;;;;;;;;;;;;5043928;28;19952;-80
2022/09/05 07:21:20;;;;;;;;;;;;;;;;;;5040664;28;19905;-80
2022/09/05 07:23:45;;;;;;;;;;;;;;;;;;5040544;28;19924;-80
2022/09/05 07:26:11;;;;;;;;;;;;;;;;;;5044538;28;19928;-82
2022/09/05 07:28:37;;;;;;;;;;;;;;;;;;5044399;28;19909;-80
2022/09/05 07:31:02;;;;;;;;;;;;;;;;;;5046783;28;19952;-80
2022/09/05 07:33:27;;;;;;;;;;;;;;;;;;5045882;28;19995;-82
2022/09/05 07:35:52;;;;;;;;;;;;;;;;;;5049680;28;19905;-82
2022/09/05 07:38:17;;;;;;;;;;;;;;;;;;5043801;28;19999;-81
2022/09/05 07:40:42;;;;;;;;;;;;;;;;;;5046859;28;20303;-82
2022/09/05 07:43:07;;;;;;;;;;;;;;;;;;5036154;28;19912;-84
2022/09/05 07:45:33;;;;;;;;;;;;;;;;;;5040134;28;19917;-87
2022/09/05 07:47:58;;;;;;;;;;;;;;;;;;5039508;28;19920;-83
2022/09/05 07:50:23;;;;;;;;;;;;;;;;;;5033624;28;20246;-83
2022/09/05 07:52:48;;;;;;;;;;;;;;;;;;5037342;28;19920;-83
2022/09/05 07:55:13;;;;;;;;;;;;;;;;;;5046525;28;19909;-87
2022/09/05 07:57:38;;;;;;;;;;;;;;;;;;5045241;28;20449;-87
2022/09/05 08:00:04;;;;;;;;;;;;;;;;;;5053815;28;19908;-86
2022/09/05 08:02:30;;;;;;;;;;;;;;;;;;5046551;28;19936;-86
2022/09/05 08:04:55;;;;;;;;;;;;;;;;;;5055373;28;19962;-86
2022/09/05 08:07:20;;;;;;;;;;;;;;;;;;5042308;28;19909;-87
2022/09/05 08:09:45;;;;;;;;;;;;;;;;;;5049256;28;19951;-87
2022/09/05 08:12:10;;;;;;;;;;;;;;;;;;5045370;28;19905;-86
2022/09/05 08:14:35;;;;;;;;;;;;;;;;;;5043148;28;19905;-87
2022/09/05 08:17:00;;;;;;;;;;;;;;;;;;5043277;28;19920;-87
2022/09/05 08:19:26;;;;;;;;;;;;;;;;;;5045319;28;20329;-85
2022/09/05 08:21:51;;;;;;;;;;;;;;;;;;5042055;28;19905;-87
2022/09/05 08:24:18;;;;;;;;;;;;;;;;;;5048444;28;19963;-86
2022/09/05 08:26:44;;;;;;;;;;;;;;;;;;5047550;28;19924;-86
2022/09/05 08:29:10;;;;;;;;;;;;;;;;;;5049659;28;20330;-86
2022/09/05 08:31:35;;;;;;;;;;;;;;;;;;5050729;28;20421;-81
2022/09/05 08:34:00;;;;;;;;;;;;;;;;;;5047242;28;19905;-82
2022/09/05 08:36:25;;;;;;;;;;;;;;;;;;5040112;28;19905;-82
2022/09/05 08:38:50;;;;;;;;;;;;;;;;;;5046672;28;19931;-85
2022/09/05 08:41:16;;;;;;;;;;;;;;;;;;5041962;28;20008;-84
2022/09/05 08:43:41;;;;;;;;;;;;;;;;;;5039547;28;19905;-83
2022/09/05 08:46:06;;;;;;;;;;;;;;;;;;5041789;28;19916;-82
2022/09/05 08:48:31;;;;;;;;;;;;;;;;;;5043269;28;19912;-79
2022/09/05 08:50:56;;;;;;;;;;;;;;;;;;5041426;28;20344;-82
2022/09/05 08:53:22;;;;;;;;;;;;;;;;;;5039102;28;19913;-78
2022/09/05 08:55:47;;;;;;;;;;;;;;;;;;5042311;28;20124;-81
2022/09/05 08:58:12;;;;;;;;;;;;;;;;;;5045601;28;19905;-82
2022/09/05 09:00:37;;;;;;;;;;;;;;;;;;5041655;28;19958;-81
2022/09/05 09:03:02;;;;;;;;;;;;;;;;;;5045031;28;19959;-79
2022/09/05 09:05:27;;;;;;;;;;;;;;;;;;5040521;28;19913;-79
2022/09/05 09:07:52;;;;;;;;;;;;;;;;;;5038669;28;20005;-79
2022/09/05 09:10:17;;;;;;;;;;;;;;;;;;5041384;28;19905;-81
2022/09/05 09:12:43;;;;;;;;;;;;;;;;;;5054761;28;19905;-79
2022/09/05 09:15:08;;;;;;;;;;;;;;;;;;5052295;28;19912;-79
2022/09/05 09:17:33;;;;;;;;;;;;;;;;;;5053896;28;20352;-80
2022/09/05 09:19:58;;;;;;;;;;;;;;;;;;5042266;28;19908;-80
2022/09/05 09:22:23;;;;;;;;;;;;;;;;;;5047258;28;19909;-80
2022/09/05 09:24:48;;;;;;;;;;;;;;;;;;5051600;28;19927;-78
2022/09/05 09:27:13;;;;;;;;;;;;;;;;;;5054805;28;19904;-78
2022/09/05 09:29:39;;;;;;;;;;;;;;;;;;5042475;28;19908;-78
2022/09/05 09:32:04;;;;;;;;;;;;;;;;;;5052095;28;19908;-78
2022/09/05 09:34:31;;;;;;;;;;;;;;;;;;5049167;28;19952;-77
2022/09/05 09:36:56;;;;;;;;;;;;;;;;;;5039296;28;19909;-79
2022/09/05 09:39:21;;;;;;;;;;;;;;;;;;5041280;28;19911;-80
2022/09/05 09:41:47;;;;;;;;;;;;;;;;;;5046216;28;19912;-81
2022/09/05 09:44:12;;;;;;;;;;;;;;;;;;5047218;28;19916;-79
2022/09/05 09:46:37;;;;;;;;;;;;;;;;;;5049152;28;19928;-80
2022/09/05 09:49:03;;;;;;;;;;;;;;;;;;5042453;28;19909;-79
2022/09/05 09:51:29;;;;;;;;;;;;;;;;;;5044410;28;19955;-79
2022/09/05 09:53:56;;;;;;;;;;;;;;;;;;5049514;28;19912;-79
2022/09/05 09:56:21;;;;;;;;;;;;;;;;;;5038919;28;19916;-80
2022/09/05 09:58:47;;;;;;;;;;;;;;;;;;5045016;28;19909;-80
2022/09/05 10:01:12;;;;;;;;;;;;;;;;;;5047523;28;19905;-79
2022/09/05 10:03:38;;;;;;;;;;;;;;;;;;5053097;28;20326;-80
2022/09/05 10:06:03;;;;;;;;;;;;;;;;;;5039467;28;20012;-80
2022/09/05 10:08:28;;;;;;;;;;;;;;;;;;5050680;28;20376;-80
2022/09/05 10:10:54;;;;;;;;;;;;;;;;;;5041373;28;19912;-79
2022/09/05 10:13:19;;;;;;;;;;;;;;;;;;5041004;28;20249;-80
2022/09/05 10:15:44;;;;;;;;;;;;;;;;;;5039820;28;20375;-79
2022/09/05 10:18:09;;;;;;;;;;;;;;;;;;5045877;28;19912;-80
2022/09/05 10:20:36;;;;;;;;;;;;;;;;;;5049295;28;19986;-80
2022/09/05 10:23:02;;;;;;;;;;;;;;;;;;5046179;28;19944;-81
2022/09/05 10:25:27;;;;;;;;;;;;;;;;;;5022950;28;19948;-81
2022/09/05 10:27:52;;;;;;;;;;;;;;;;;;5044744;28;20337;-81
2022/09/05 10:30:17;;;;;;;;;;;;;;;;;;5046815;28;19944;-82
2022/09/05 10:32:42;;;;;;;;;;;;;;;;;;5043818;28;19912;-81
2022/09/05 10:35:08;;;;;;;;;;;;;;;;;;5041697;28;19935;-82
2022/09/05 10:37:33;;;;;;;;;;;;;;;;;;5036342;28;20238;-82
2022/09/05 10:39:58;;;;;;;;;;;;;;;;;;5040616;28;20011;-82
2022/09/05 10:42:24;;;;;;;;;;;;;;;;;;5044324;28;19936;-82
2022/09/05 10:44:49;;;;;;;;;;;;;;;;;;5046468;28;19912;-82
2022/09/05 10:47:14;;;;;;;;;;;;;;;;;;5045476;28;20371;-84
2022/09/05 10:49:39;;;;;;;;;;;;;;;;;;5049387;28;19999;-82
2022/09/05 10:52:05;;;;;;;;;;;;;;;;;;5050689;28;20253;-82
2022/09/05 10:54:30;;;;;;;;;;;;;;;;;;5043891;28;20409;-83
2022/09/05 10:56:55;;;;;;;;;;;;;;;;;;5045232;28;19956;-82
2022/09/05 10:59:20;;;;;;;;;;;;;;;;;;5045824;28;19934;-81
2022/09/05 11:01:46;;;;;;;;;;;;;;;;;;5040096;28;19917;-82
2022/09/05 11:04:11;;;;;;;;;;;;;;;;;;5039160;28;19909;-81
2022/09/05 11:06:36;;;;;;;;;;;;;;;;;;5036235;28;19913;-81
2022/09/05 11:09:02;;;;;;;;;;;;;;;;;;5042326;28;20320;-81
2022/09/05 11:11:27;;;;;;;;;;;;;;;;;;5035850;28;20384;-81
2022/09/05 11:13:53;;;;;;;;;;;;;;;;;;5043636;28;19909;-81
2022/09/05 11:16:18;;;;;;;;;;;;;;;;;;5042601;28;19913;-81
2022/09/05 11:18:44;;;;;;;;;;;;;;;;;;5037188;28;20303;-81
2022/09/05 11:21:09;;;;;;;;;;;;;;;;;;5046304;28;19908;-81
2022/09/05 11:23:34;;;;;;;;;;;;;;;;;;5047424;28;19909;-81
2022/09/05 11:26:00;;;;;;;;;;;;;;;;;;5044736;28;20034;-81
2022/09/05 11:28:25;;;;;;;;;;;;;;;;;;5048026;28;19913;-81
2022/09/05 11:30:52;;;;;;;;;;;;;;;;;;5041461;28;19995;-81
2022/09/05 11:33:17;;;;;;;;;;;;;;;;;;5039400;28;19986;-81
2022/09/05 11:35:42;;;;;;;;;;;;;;;;;;5038503;28;19948;-81
2022/09/05 11:38:07;;;;;;;;;;;;;;;;;;5039342;28;20371;-81
2022/09/05 11:40:32;;;;;;;;;;;;;;;;;;5040897;28;20003;-81
2022/09/05 11:42:57;;;;;;;;;;;;;;;;;;5039737;28;19908;-80
2022/09/05 11:45:22;;;;;;;;;;;;;;;;;;5037694;28;19925;-80
2022/09/05 11:47:47;;;;;;;;;;;;;;;;;;5045178;28;19912;-81
2022/09/05 11:50:13;;;;;;;;;;;;;;;;;;5039722;28;19920;-81
2022/09/05 11:52:39;;;;;;;;;;;;;;;;;;5038560;28;19996;-81
2022/09/05 11:55:04;;;;;;;;;;;;;;;;;;5042096;28;19991;-81
2022/09/05 11:57:30;;;;;;;;;;;;;;;;;;5052776;28;19940;-81
2022/09/05 11:59:55;;;;;;;;;;;;;;;;;;5029908;28;19978;-82
2022/09/05 12:02:20;;;;;;;;;;;;;;;;;;5033315;28;20475;-82
2022/09/05 12:04:46;;;;;;;;;;;;;;;;;;5037712;28;19908;-82
2022/09/05 12:07:11;;;;;;;;;;;;;;;;;;5046876;28;19917;-81
2022/09/05 12:09:36;;;;;;;;;;;;;;;;;;5036678;28;19909;-82
2022/09/05 12:12:01;;;;;;;;;;;;;;;;;;5046138;28;19920;-82
2022/09/05 12:14:27;;;;;;;;;;;;;;;;;;5039616;28;19916;-81
2022/09/05 12:16:52;;;;;;;;;;;;;;;;;;5042843;28;19958;-81
2022/09/05 12:19:17;;;;;;;;;;;;;;;;;;5034386;28;19909;-81
2022/09/05 12:21:42;;;;;;;;;;;;;;;;;;5037122;28;19912;-81
2022/09/05 12:24:09;;;;;;;;;;;;;;;;;;5038891;28;20365;-81
2022/09/05 12:26:34;;;;;;;;;;;;;;;;;;5042504;28;20280;-81
2022/09/05 12:28:59;;;;;;;;;;;;;;;;;;5039092;28;19909;-81
2022/09/05 12:31:24;;;;;;;;;;;;;;;;;;5032894;28;19916;-81
2022/09/05 12:33:50;;;;;;;;;;;;;;;;;;5037220;28;19908;-81
2022/09/05 12:36:15;;;;;;;;;;;;;;;;;;5047745;28;19951;-81
2022/09/05 12:38:41;;;;;;;;;;;;;;;;;;5034063;28;19916;-81
2022/09/05 12:41:06;;;;;;;;;;;;;;;;;;5038081;28;19908;-81
2022/09/05 12:43:34;;;;;;;;;;;;;;;;;;5046571;28;19908;-81
2022/09/05 12:46:00;;;;;;;;;;;;;;;;;;5040690;28;20426;-82
2022/09/05 12:48:25;;;;;;;;;;;;;;;;;;5039790;28;19909;-81
2022/09/05 12:50:50;;;;;;;;;;;;;;;;;;5046388;28;19909;-81
2022/09/05 12:53:17;;;;;;;;;;;;;;;;;;5045457;28;20305;-81
2022/09/05 12:55:42;;;;;;;;;;;;;;;;;;5052354;28;19908;-80
2022/09/05 12:58:07;;;;;;;;;;;;;;;;;;5050678;28;20636;-79
2022/09/05 13:00:32;;;;;;;;;;;;;;;;;;5036571;28;19916;-79
2022/09/05 13:02:57;;;;;;;;;;;;;;;;;;5040184;28;19923;-80
2022/09/05 13:05:24;;;;;;;;;;;;;;;;;;5045188;28;20019;-79
2022/09/05 13:07:49;;;;;;;;;;;;;;;;;;5048697;28;19943;-80
2022/09/05 13:10:14;;;;;;;;;;;;;;;;;;5051870;28;19909;-79
2022/09/05 13:12:41;;;;;;;;;;;;;;;;;;5048556;28;19954;-79
2022/09/05 13:15:07;;;;;;;;;;;;;;;;;;5044917;28;19916;-80
2022/09/05 13:17:37;;;;;;;;;;;;;;;;;;5052715;28;19904;-81
2022/09/05 13:20:02;;;;;;;;;;;;;;;;;;5044197;28;20359;-82
2022/09/05 13:22:27;;;;;;;;;;;;;;;;;;5050177;28;19909;-82
2022/09/05 13:24:52;;;;;;;;;;;;;;;;;;5045490;28;19952;-81
2022/09/05 13:27:18;;;;;;;;;;;;;;;;;;5043684;28;19909;-82
2022/09/05 13:30:04;;;;;;;;;;;;;;;;;;5040809;28;19913;-82
2022/09/05 13:32:29;;;;;;;;;;;;;;;;;;5045971;28;20269;-82
2022/09/05 13:34:55;;;;;;;;;;;;;;;;;;5044539;28;19915;-82
2022/09/05 13:37:20;;;;;;;;;;;;;;;;;;5044038;28;19905;-82
2022/09/05 13:39:46;;;;;;;;;;;;;;;;;;5041453;28;20480;-80
2022/09/05 13:42:11;;;;;;;;;;;;;;;;;;5044542;28;19909;-81
2022/09/05 13:44:36;;;;;;;;;;;;;;;;;;5043418;28;19920;-81
2022/09/05 13:47:01;;;;;;;;;;;;;;;;;;5041795;28;19916;-81
2022/09/05 13:49:26;;;;;;;;;;;;;;;;;;5043231;28;19932;-82
2022/09/05 13:51:51;;;;;;;;;;;;;;;;;;5045328;28;20000;-81
2022/09/05 13:54:17;;;;;;;;;;;;;;;;;;5049015;28;19958;-81
2022/09/05 13:56:42;;;;;;;;;;;;;;;;;;5037494;28;19939;-83
2022/09/05 13:59:08;;;;;;;;;;;;;;;;;;5047595;28;19920;-84
2022/09/05 14:01:33;;;;;;;;;;;;;;;;;;5038235;28;19917;-84
2022/09/05 14:03:59;;;;;;;;;;;;;;;;;;5043117;28;19916;-83
2022/09/05 14:06:24;;;;;;;;;;;;;;;;;;5041873;28;19995;-85
2022/09/05 14:08:50;;;;;;;;;;;;;;;;;;5037189;28;19971;-83
2022/09/05 14:11:15;;;;;;;;;;;;;;;;;;5045316;28;19997;-82
2022/09/05 14:13:41;;;;;;;;;;;;;;;;;;5047437;28;19912;-82
2022/09/05 14:16:06;;;;;;;;;;;;;;;;;;5047223;28;19944;-82
2022/09/05 14:18:31;;;;;;;;;;;;;;;;;;5049216;28;19916;-82
2022/09/05 14:21:14;;;;;;;;;;;;;;;;;;5049089;28;19954;-82
2022/09/05 14:23:40;;;;;;;;;;;;;;;;;;5041738;28;19915;-82
2022/09/05 14:26:05;;;;;;;;;;;;;;;;;;5051611;28;19917;-82
2022/09/05 14:28:30;;;;;;;;;;;;;;;;;;5047667;28;19905;-82
2022/09/05 14:30:55;;;;;;;;;;;;;;;;;;5040039;28;19959;-82
2022/09/05 14:33:20;;;;;;;;;;;;;;;;;;5050652;28;19909;-84
2022/09/05 14:35:46;;;;;;;;;;;;;;;;;;5047587;28;19942;-84
2022/09/05 14:38:11;;;;;;;;;;;;;;;;;;5041412;28;20356;-83
2022/09/05 14:40:36;;;;;;;;;;;;;;;;;;5042111;28;20368;-83
2022/09/05 14:43:01;;;;;;;;;;;;;;;;;;5035633;28;19916;-84
2022/09/05 14:45:26;;;;;;;;;;;;;;;;;;5044713;28;19912;-84
2022/09/05 14:47:51;;;;;;;;;;;;;;;;;;5043266;28;19909;-85
2022/09/05 14:50:17;;;;;;;;;;;;;;;;;;5051541;28;19911;-84
2022/09/05 14:52:42;;;;;;;;;;;;;;;;;;5037990;28;19909;-85
2022/09/05 14:55:07;;;;;;;;;;;;;;;;;;5044570;28;19954;-86
2022/09/05 14:57:32;;;;;;;;;;;;;;;;;;5044675;28;19916;-84
2022/09/05 14:59:57;;;;;;;;;;;;;;;;;;5040974;28;19908;-84
2022/09/05 15:02:23;;;;;;;;;;;;;;;;;;5041070;28;19909;-85
2022/09/05 15:04:48;;;;;;;;;;;;;;;;;;5041472;28;19909;-84
2022/09/05 15:07:13;;;;;;;;;;;;;;;;;;5047595;28;19913;-85
2022/09/05 15:09:38;;;;;;;;;;;;;;;;;;5041015;28;19909;-85
2022/09/05 15:12:03;;;;;;;;;;;;;;;;;;5037378;28;19912;-85
2022/09/05 15:14:30;;;;;;;;;;;;;;;;;;5043050;28;20332;-85
2022/09/05 15:16:55;;;;;;;;;;;;;;;;;;5050559;28;19915;-85
2022/09/05 15:19:20;;;;;;;;;;;;;;;;;;5035665;28;19905;-85
2022/09/05 15:21:45;;;;;;;;;;;;;;;;;;5046866;28;19995;-85
2022/09/05 15:24:13;;;;;;;;;;;;;;;;;;5047500;28;19923;-84
2022/09/05 15:26:38;;;;;;;;;;;;;;;;;;5047775;28;19916;-86
2022/09/05 15:29:03;;;;;;;;;;;;;;;;;;5037138;28;19916;-85
2022/09/05 15:31:28;;;;;;;;;;;;;;;;;;5046112;28;20333;-86
2022/09/05 15:33:54;;;;;;;;;;;;;;;;;;5050359;28;19959;-84
2022/09/05 15:36:19;;;;;;;;;;;;;;;;;;5042556;28;19909;-84
2022/09/05 15:38:45;;;;;;;;;;;;;;;;;;5045550;28;19958;-85
2022/09/05 15:41:10;;;;;;;;;;;;;;;;;;5038745;28;19909;-85
2022/09/05 15:43:35;;;;;;;;;;;;;;;;;;5039109;28;19912;-85
2022/09/05 15:46:01;;;;;;;;;;;;;;;;;;5043969;28;20090;-84
2022/09/05 15:48:26;;;;;;;;;;;;;;;;;;5041120;28;19905;-85
2022/09/05 15:50:52;;;;;;;;;;;;;;;;;;5031849;28;19909;-87
2022/09/05 15:53:17;;;;;;;;;;;;;;;;;;5035485;28;20025;-88
2022/09/05 15:55:42;;;;;;;;;;;;;;;;;;5041440;28;19905;-85
2022/09/05 15:58:09;;;;;;;;;;;;;;;;;;5045950;28;19917;-86
2022/09/05 16:00:34;;;;;;;;;;;;;;;;;;5037870;28;19909;-86
2022/09/05 16:02:59;;;;;;;;;;;;;;;;;;5037489;28;19913;-85
2022/09/05 16:05:24;;;;;;;;;;;;;;;;;;5036280;28;20420;-86
2022/09/05 16:07:49;;;;;;;;;;;;;;;;;;5032552;28;20368;-86
2022/09/05 16:10:14;;;;;;;;;;;;;;;;;;5040592;28;19976;-83
2022/09/05 16:12:39;;;;;;;;;;;;;;;;;;5036334;28;19908;-82
2022/09/05 16:15:05;;;;;;;;;;;;;;;;;;5039780;28;20312;-83
2022/09/05 16:17:30;;;;;;;;;;;;;;;;;;5043518;28;19919;-84
2022/09/05 16:19:55;;;;;;;;;;;;;;;;;;5049911;28;19915;-83
2022/09/05 16:22:20;;;;;;;;;;;;;;;;;;5043386;28;20678;-84
2022/09/05 16:24:45;;;;;;;;;;;;;;;;;;5035939;28;19921;-84
2022/09/05 16:27:10;;;;;;;;;;;;;;;;;;5039553;28;19952;-84
2022/09/05 16:29:36;;;;;;;;;;;;;;;;;;5048942;28;19908;-83
2022/09/05 16:32:01;;;;;;;;;;;;;;;;;;5035884;28;19916;-83